sensor_id;sensor_type;location;lat;lon;timestamp;P1;durP1;ratioP1;P2;durP2;ratioP2
17773;SDS011;9011;33.236;-97.118;2023-05-07T00:01:49;18.10;;;14.30;;
17773;SDS011;9011;33.236;-97.118;2023-05-07T00:04:18;18.17;;;14.65;;
17773;SDS011;9011;33.236;-97.118;2023-05-07T00:06:47;19.33;;;14.52;;
17773;SDS011;9011;33.236;-97.118;2023-05-07T00:09:22;17.40;;;14.68;;
17773;SDS011;9011;33.236;-97.118;2023-05-07T00:11:50;19.25;;;15.05;;
17773;SDS011;9011;33.236;-97.118;2023-05-07T00:14:19;20.05;;;15.32;;
17773;SDS011;9011;33.236;-97.118;2023-05-07T00:16:47;19.40;;;15.48;;
17773;SDS011;9011;33.236;-97.118;2023-05-07T00:19:16;18.42;;;14.43;;
17773;SDS011;9011;33.236;-97.118;2023-05-07T00:22:01;20.98;;;15.82;;
17773;SDS011;9011;33.236;-97.118;2023-05-07T00:24:32;23.58;;;15.70;;
17773;SDS011;9011;33.236;-97.118;2023-05-07T00:27:00;23.50;;;14.95;;
17773;SDS011;9011;33.236;-97.118;2023-05-07T00:29:39;20.30;;;15.85;;
17773;SDS011;9011;33.236;-97.118;2023-05-07T00:32:14;22.30;;;16.05;;
17773;SDS011;9011;33.236;-97.118;2023-05-07T00:34:42;17.63;;;15.38;;
17773;SDS011;9011;33.236;-97.118;2023-05-07T00:37:11;18.33;;;15.55;;
17773;SDS011;9011;33.236;-97.118;2023-05-07T00:39:49;18.25;;;14.63;;
17773;SDS011;9011;33.236;-97.118;2023-05-07T00:42:18;20.00;;;15.45;;
17773;SDS011;9011;33.236;-97.118;2023-05-07T00:44:46;17.92;;;15.73;;
17773;SDS011;9011;33.236;-97.118;2023-05-07T00:47:19;19.52;;;15.48;;
17773;SDS011;9011;33.236;-97.118;2023-05-07T00:49:48;18.77;;;15.05;;
17773;SDS011;9011;33.236;-97.118;2023-05-07T00:52:17;17.85;;;14.65;;
17773;SDS011;9011;33.236;-97.118;2023-05-07T00:54:48;18.50;;;14.90;;
17773;SDS011;9011;33.236;-97.118;2023-05-07T00:57:17;22.13;;;14.40;;
17773;SDS011;9011;33.236;-97.118;2023-05-07T00:59:46;18.92;;;14.80;;
17773;SDS011;9011;33.236;-97.118;2023-05-07T01:02:15;19.63;;;15.05;;
17773;SDS011;9011;33.236;-97.118;2023-05-07T01:04:44;19.23;;;14.55;;
17773;SDS011;9011;33.236;-97.118;2023-05-07T01:07:13;18.80;;;14.35;;
17773;SDS011;9011;33.236;-97.118;2023-05-07T01:09:41;20.27;;;15.70;;
17773;SDS011;9011;33.236;-97.118;2023-05-07T01:12:12;18.50;;;15.27;;
17773;SDS011;9011;33.236;-97.118;2023-05-07T01:14:44;21.25;;;15.18;;
17773;SDS011;9011;33.236;-97.118;2023-05-07T01:17:14;18.67;;;14.68;;
17773;SDS011;9011;33.236;-97.118;2023-05-07T01:19:42;19.02;;;15.48;;
17773;SDS011;9011;33.236;-97.118;2023-05-07T01:22:11;16.70;;;14.50;;
17773;SDS011;9011;33.236;-97.118;2023-05-07T01:24:43;20.58;;;16.05;;
17773;SDS011;9011;33.236;-97.118;2023-05-07T01:27:12;20.55;;;15.77;;
17773;SDS011;9011;33.236;-97.118;2023-05-07T01:29:41;20.00;;;15.40;;
17773;SDS011;9011;33.236;-97.118;2023-05-07T01:32:12;22.75;;;16.50;;
17773;SDS011;9011;33.236;-97.118;2023-05-07T01:34:49;19.80;;;14.63;;
17773;SDS011;9011;33.236;-97.118;2023-05-07T01:37:20;20.55;;;16.80;;
17773;SDS011;9011;33.236;-97.118;2023-05-07T01:39:51;22.73;;;16.95;;
17773;SDS011;9011;33.236;-97.118;2023-05-07T01:42:20;20.55;;;15.05;;
17773;SDS011;9011;33.236;-97.118;2023-05-07T01:44:49;24.13;;;15.85;;
17773;SDS011;9011;33.236;-97.118;2023-05-07T01:47:18;22.55;;;17.50;;
17773;SDS011;9011;33.236;-97.118;2023-05-07T01:49:47;20.55;;;15.88;;
17773;SDS011;9011;33.236;-97.118;2023-05-07T01:52:16;24.48;;;17.77;;
17773;SDS011;9011;33.236;-97.118;2023-05-07T01:54:52;23.85;;;17.45;;
17773;SDS011;9011;33.236;-97.118;2023-05-07T01:57:34;23.45;;;17.48;;
17773;SDS011;9011;33.236;-97.118;2023-05-07T02:00:16;22.63;;;17.75;;
17773;SDS011;9011;33.236;-97.118;2023-05-07T02:03:01;21.17;;;15.95;;
17773;SDS011;9011;33.236;-97.118;2023-05-07T02:08:09;22.98;;;16.42;;
17773;SDS011;9011;33.236;-97.118;2023-05-07T02:09:31;18.92;;;13.23;;
17773;SDS011;9011;33.236;-97.118;2023-05-07T02:12:01;18.15;;;13.02;;
17773;SDS011;9011;33.236;-97.118;2023-05-07T02:20:29;9.95;;;8.32;;
17773;SDS011;9011;33.236;-97.118;2023-05-07T02:22:58;4.00;;;3.20;;
17773;SDS011;9011;33.236;-97.118;2023-05-07T02:25:49;2.05;;;1.60;;
17773;SDS011;9011;33.236;-97.118;2023-05-07T02:28:20;1.48;;;1.20;;
17773;SDS011;9011;33.236;-97.118;2023-05-07T02:30:48;2.55;;;1.58;;
17773;SDS011;9011;33.236;-97.118;2023-05-07T02:33:20;2.53;;;1.70;;
17773;SDS011;9011;33.236;-97.118;2023-05-07T02:35:48;2.80;;;1.73;;
17773;SDS011;9011;33.236;-97.118;2023-05-07T02:38:17;2.15;;;1.67;;
17773;SDS011;9011;33.236;-97.118;2023-05-07T02:40:51;2.95;;;1.80;;
17773;SDS011;9011;33.236;-97.118;2023-05-07T02:43:21;5.05;;;2.50;;
17773;SDS011;9011;33.236;-97.118;2023-05-07T02:45:49;8.45;;;5.63;;
17773;SDS011;9011;33.236;-97.118;2023-05-07T02:48:28;9.50;;;5.60;;
17773;SDS011;9011;33.236;-97.118;2023-05-07T02:50:59;9.95;;;6.50;;
17773;SDS011;9011;33.236;-97.118;2023-05-07T02:53:30;8.65;;;5.03;;
17773;SDS011;9011;33.236;-97.118;2023-05-07T02:55:59;7.18;;;4.05;;
17773;SDS011;9011;33.236;-97.118;2023-05-07T02:58:30;5.35;;;3.78;;
17773;SDS011;9011;33.236;-97.118;2023-05-07T03:01:02;4.95;;;3.13;;
17773;SDS011;9011;33.236;-97.118;2023-05-07T03:03:30;6.43;;;3.47;;
17773;SDS011;9011;33.236;-97.118;2023-05-07T03:06:02;4.20;;;2.92;;
17773;SDS011;9011;33.236;-97.118;2023-05-07T03:08:31;3.17;;;2.72;;
17773;SDS011;9011;33.236;-97.118;2023-05-07T03:11:00;5.00;;;2.65;;
17773;SDS011;9011;33.236;-97.118;2023-05-07T03:13:28;4.50;;;2.10;;
17773;SDS011;9011;33.236;-97.118;2023-05-07T03:16:00;3.50;;;1.88;;
17773;SDS011;9011;33.236;-97.118;2023-05-07T03:18:29;3.65;;;2.40;;
17773;SDS011;9011;33.236;-97.118;2023-05-07T03:20:57;4.38;;;2.20;;
17773;SDS011;9011;33.236;-97.118;2023-05-07T03:23:26;3.88;;;2.75;;
17773;SDS011;9011;33.236;-97.118;2023-05-07T03:25:57;4.80;;;2.45;;
17773;SDS011;9011;33.236;-97.118;2023-05-07T03:28:25;3.72;;;2.45;;
17773;SDS011;9011;33.236;-97.118;2023-05-07T03:30:55;5.30;;;2.70;;
17773;SDS011;9011;33.236;-97.118;2023-05-07T03:33:24;5.10;;;2.58;;
17773;SDS011;9011;33.236;-97.118;2023-05-07T03:35:52;4.63;;;2.55;;
17773;SDS011;9011;33.236;-97.118;2023-05-07T03:38:21;3.53;;;2.00;;
17773;SDS011;9011;33.236;-97.118;2023-05-07T03:40:50;4.32;;;2.33;;
17773;SDS011;9011;33.236;-97.118;2023-05-07T03:43:21;2.65;;;1.73;;
17773;SDS011;9011;33.236;-97.118;2023-05-07T03:45:53;2.97;;;1.73;;
17773;SDS011;9011;33.236;-97.118;2023-05-07T03:48:32;4.43;;;1.73;;
17773;SDS011;9011;33.236;-97.118;2023-05-07T03:51:00;4.25;;;1.90;;
17773;SDS011;9011;33.236;-97.118;2023-05-07T03:53:32;4.05;;;1.60;;
17773;SDS011;9011;33.236;-97.118;2023-05-07T03:56:06;2.70;;;1.50;;
17773;SDS011;9011;33.236;-97.118;2023-05-07T03:58:34;2.13;;;1.60;;
17773;SDS011;9011;33.236;-97.118;2023-05-07T04:01:04;3.08;;;1.70;;
17773;SDS011;9011;33.236;-97.118;2023-05-07T04:03:34;2.40;;;1.60;;
17773;SDS011;9011;33.236;-97.118;2023-05-07T04:06:03;4.38;;;1.65;;
17773;SDS011;9011;33.236;-97.118;2023-05-07T04:08:34;3.13;;;1.67;;
17773;SDS011;9011;33.236;-97.118;2023-05-07T04:11:05;3.22;;;1.65;;
17773;SDS011;9011;33.236;-97.118;2023-05-07T04:13:33;2.72;;;1.98;;
17773;SDS011;9011;33.236;-97.118;2023-05-07T04:16:02;2.88;;;1.77;;
17773;SDS011;9011;33.236;-97.118;2023-05-07T04:18:32;3.80;;;1.77;;
17773;SDS011;9011;33.236;-97.118;2023-05-07T04:21:03;5.35;;;2.22;;
17773;SDS011;9011;33.236;-97.118;2023-05-07T04:23:34;2.20;;;1.80;;
17773;SDS011;9011;33.236;-97.118;2023-05-07T04:26:02;2.85;;;1.95;;
17773;SDS011;9011;33.236;-97.118;2023-05-07T04:28:34;2.13;;;1.77;;
17773;SDS011;9011;33.236;-97.118;2023-05-07T04:31:08;2.30;;;1.70;;
17773;SDS011;9011;33.236;-97.118;2023-05-07T04:33:37;2.72;;;2.08;;
17773;SDS011;9011;33.236;-97.118;2023-05-07T04:36:05;4.03;;;2.25;;
17773;SDS011;9011;33.236;-97.118;2023-05-07T04:38:36;5.75;;;2.55;;
17773;SDS011;9011;33.236;-97.118;2023-05-07T04:41:05;3.20;;;2.30;;
17773;SDS011;9011;33.236;-97.118;2023-05-07T04:43:34;4.20;;;2.88;;
17773;SDS011;9011;33.236;-97.118;2023-05-07T04:46:02;7.50;;;3.10;;
17773;SDS011;9011;33.236;-97.118;2023-05-07T04:48:33;6.70;;;2.92;;
17773;SDS011;9011;33.236;-97.118;2023-05-07T04:51:01;6.53;;;3.10;;
17773;SDS011;9011;33.236;-97.118;2023-05-07T04:53:32;9.18;;;3.05;;
17773;SDS011;9011;33.236;-97.118;2023-05-07T04:56:03;6.85;;;3.13;;
17773;SDS011;9011;33.236;-97.118;2023-05-07T04:58:32;5.32;;;2.72;;
17773;SDS011;9011;33.236;-97.118;2023-05-07T05:01:12;3.65;;;2.85;;
17773;SDS011;9011;33.236;-97.118;2023-05-07T05:03:42;3.90;;;2.50;;
17773;SDS011;9011;33.236;-97.118;2023-05-07T05:06:11;4.82;;;2.53;;
17773;SDS011;9011;33.236;-97.118;2023-05-07T05:08:42;3.35;;;2.50;;
17773;SDS011;9011;33.236;-97.118;2023-05-07T05:11:10;4.10;;;2.42;;
17773;SDS011;9011;33.236;-97.118;2023-05-07T05:13:39;3.35;;;2.72;;
17773;SDS011;9011;33.236;-97.118;2023-05-07T05:16:08;4.05;;;2.65;;
17773;SDS011;9011;33.236;-97.118;2023-05-07T05:18:45;4.13;;;2.53;;
17773;SDS011;9011;33.236;-97.118;2023-05-07T05:21:23;4.18;;;2.78;;
17773;SDS011;9011;33.236;-97.118;2023-05-07T05:23:52;6.45;;;3.08;;
17773;SDS011;9011;33.236;-97.118;2023-05-07T05:26:28;4.03;;;2.85;;
17773;SDS011;9011;33.236;-97.118;2023-05-07T05:29:21;5.00;;;2.78;;
17773;SDS011;9011;33.236;-97.118;2023-05-07T05:31:56;3.78;;;2.78;;
17773;SDS011;9011;33.236;-97.118;2023-05-07T05:37:42;3.03;;;2.63;;
17773;SDS011;9011;33.236;-97.118;2023-05-07T05:40:33;3.42;;;2.80;;
17773;SDS011;9011;33.236;-97.118;2023-05-07T05:43:01;4.82;;;2.45;;
17773;SDS011;9011;33.236;-97.118;2023-05-07T05:45:30;2.85;;;2.35;;
17773;SDS011;9011;33.236;-97.118;2023-05-07T05:48:04;3.45;;;2.42;;
17773;SDS011;9011;33.236;-97.118;2023-05-07T05:50:47;3.78;;;2.58;;
17773;SDS011;9011;33.236;-97.118;2023-05-07T05:53:28;4.03;;;2.65;;
17773;SDS011;9011;33.236;-97.118;2023-05-07T05:56:15;2.97;;;2.28;;
17773;SDS011;9011;33.236;-97.118;2023-05-07T05:58:52;3.58;;;2.38;;
17773;SDS011;9011;33.236;-97.118;2023-05-07T06:01:23;3.38;;;2.35;;
17773;SDS011;9011;33.236;-97.118;2023-05-07T06:04:11;2.08;;;1.80;;
17773;SDS011;9011;33.236;-97.118;2023-05-07T06:06:53;3.60;;;2.03;;
17773;SDS011;9011;33.236;-97.118;2023-05-07T06:10:51;3.05;;;2.28;;
17773;SDS011;9011;33.236;-97.118;2023-05-07T06:12:38;3.78;;;2.15;;
17773;SDS011;9011;33.236;-97.118;2023-05-07T06:15:09;2.30;;;2.10;;
17773;SDS011;9011;33.236;-97.118;2023-05-07T06:20:31;2.72;;;1.83;;
17773;SDS011;9011;33.236;-97.118;2023-05-07T06:26:17;2.28;;;1.80;;
17773;SDS011;9011;33.236;-97.118;2023-05-07T06:28:48;2.45;;;2.13;;
17773;SDS011;9011;33.236;-97.118;2023-05-07T06:37:10;2.15;;;1.65;;
17773;SDS011;9011;33.236;-97.118;2023-05-07T06:39:52;3.20;;;2.00;;
17773;SDS011;9011;33.236;-97.118;2023-05-07T06:42:32;4.15;;;2.20;;
17773;SDS011;9011;33.236;-97.118;2023-05-07T06:45:20;3.10;;;1.65;;
17773;SDS011;9011;33.236;-97.118;2023-05-07T06:48:04;3.00;;;2.15;;
17773;SDS011;9011;33.236;-97.118;2023-05-07T06:50:40;2.42;;;2.10;;
17773;SDS011;9011;33.236;-97.118;2023-05-07T06:56:41;2.00;;;1.80;;
17773;SDS011;9011;33.236;-97.118;2023-05-07T06:59:18;1.90;;;1.70;;
17773;SDS011;9011;33.236;-97.118;2023-05-07T07:01:53;2.05;;;1.77;;
17773;SDS011;9011;33.236;-97.118;2023-05-07T07:04:22;2.00;;;1.80;;
17773;SDS011;9011;33.236;-97.118;2023-05-07T07:06:51;2.17;;;1.83;;
17773;SDS011;9011;33.236;-97.118;2023-05-07T07:09:24;1.75;;;1.45;;
17773;SDS011;9011;33.236;-97.118;2023-05-07T07:12:00;3.55;;;2.22;;
17773;SDS011;9011;33.236;-97.118;2023-05-07T07:14:55;2.90;;;1.73;;
17773;SDS011;9011;33.236;-97.118;2023-05-07T07:18:18;3.63;;;1.83;;
17773;SDS011;9011;33.236;-97.118;2023-05-07T07:21:58;5.00;;;1.90;;
17773;SDS011;9011;33.236;-97.118;2023-05-07T07:28:29;2.50;;;2.30;;
17773;SDS011;9011;33.236;-97.118;2023-05-07T07:31:20;2.63;;;2.13;;
17773;SDS011;9011;33.236;-97.118;2023-05-07T07:34:11;2.58;;;2.13;;
17773;SDS011;9011;33.236;-97.118;2023-05-07T07:36:43;2.92;;;2.58;;
17773;SDS011;9011;33.236;-97.118;2023-05-07T07:39:19;2.50;;;2.25;;
17773;SDS011;9011;33.236;-97.118;2023-05-07T07:41:57;3.17;;;2.67;;
17773;SDS011;9011;33.236;-97.118;2023-05-07T07:45:18;3.45;;;2.63;;
17773;SDS011;9011;33.236;-97.118;2023-05-07T07:47:52;4.53;;;3.40;;
17773;SDS011;9011;33.236;-97.118;2023-05-07T07:50:27;3.35;;;2.85;;
17773;SDS011;9011;33.236;-97.118;2023-05-07T07:53:08;5.63;;;3.17;;
17773;SDS011;9011;33.236;-97.118;2023-05-07T07:55:38;4.32;;;2.90;;
17773;SDS011;9011;33.236;-97.118;2023-05-07T07:59:13;3.60;;;2.92;;
17773;SDS011;9011;33.236;-97.118;2023-05-07T08:06:04;4.40;;;3.55;;
17773;SDS011;9011;33.236;-97.118;2023-05-07T08:08:51;4.22;;;3.10;;
17773;SDS011;9011;33.236;-97.118;2023-05-07T08:11:46;4.63;;;2.75;;
17773;SDS011;9011;33.236;-97.118;2023-05-07T08:14:27;3.78;;;2.70;;
17773;SDS011;9011;33.236;-97.118;2023-05-07T08:17:02;2.50;;;2.30;;
17773;SDS011;9011;33.236;-97.118;2023-05-07T08:19:36;3.72;;;2.90;;
17773;SDS011;9011;33.236;-97.118;2023-05-07T08:25:36;3.42;;;2.75;;
17773;SDS011;9011;33.236;-97.118;2023-05-07T08:28:04;4.20;;;2.88;;
17773;SDS011;9011;33.236;-97.118;2023-05-07T08:30:42;3.47;;;2.60;;
17773;SDS011;9011;33.236;-97.118;2023-05-07T08:33:30;3.22;;;2.75;;
17773;SDS011;9011;33.236;-97.118;2023-05-07T08:36:24;2.97;;;2.30;;
17773;SDS011;9011;33.236;-97.118;2023-05-07T08:38:59;3.13;;;2.25;;
17773;SDS011;9011;33.236;-97.118;2023-05-07T08:41:38;2.92;;;2.20;;
17773;SDS011;9011;33.236;-97.118;2023-05-07T08:44:07;3.55;;;2.85;;
17773;SDS011;9011;33.236;-97.118;2023-05-07T08:50:32;3.28;;;2.25;;
17773;SDS011;9011;33.236;-97.118;2023-05-07T08:57:01;2.45;;;2.25;;
17773;SDS011;9011;33.236;-97.118;2023-05-07T08:59:51;4.07;;;2.53;;
17773;SDS011;9011;33.236;-97.118;2023-05-07T09:02:28;2.65;;;2.45;;
17773;SDS011;9011;33.236;-97.118;2023-05-07T09:04:59;4.47;;;2.28;;
17773;SDS011;9011;33.236;-97.118;2023-05-07T09:07:39;3.10;;;2.58;;
17773;SDS011;9011;33.236;-97.118;2023-05-07T09:10:21;2.55;;;2.10;;
17773;SDS011;9011;33.236;-97.118;2023-05-07T09:22:22;3.00;;;2.20;;
17773;SDS011;9011;33.236;-97.118;2023-05-07T09:25:29;2.33;;;1.85;;
17773;SDS011;9011;33.236;-97.118;2023-05-07T09:28:04;2.88;;;2.10;;
17773;SDS011;9011;33.236;-97.118;2023-05-07T09:31:14;2.80;;;1.92;;
17773;SDS011;9011;33.236;-97.118;2023-05-07T09:33:30;3.38;;;2.13;;
17773;SDS011;9011;33.236;-97.118;2023-05-07T09:36:05;1.98;;;1.83;;
17773;SDS011;9011;33.236;-97.118;2023-05-07T09:38:44;2.80;;;1.83;;
17773;SDS011;9011;33.236;-97.118;2023-05-07T09:41:18;3.03;;;2.00;;
17773;SDS011;9011;33.236;-97.118;2023-05-07T09:44:03;2.65;;;2.30;;
17773;SDS011;9011;33.236;-97.118;2023-05-07T09:46:36;2.67;;;2.28;;
17773;SDS011;9011;33.236;-97.118;2023-05-07T09:52:37;2.35;;;1.80;;
17773;SDS011;9011;33.236;-97.118;2023-05-07T09:55:08;2.50;;;2.30;;
17773;SDS011;9011;33.236;-97.118;2023-05-07T09:57:46;2.50;;;2.28;;
17773;SDS011;9011;33.236;-97.118;2023-05-07T10:00:18;2.58;;;2.13;;
17773;SDS011;9011;33.236;-97.118;2023-05-07T10:03:12;3.67;;;2.20;;
17773;SDS011;9011;33.236;-97.118;2023-05-07T10:05:52;2.60;;;2.40;;
17773;SDS011;9011;33.236;-97.118;2023-05-07T10:08:37;2.30;;;2.10;;
17773;SDS011;9011;33.236;-97.118;2023-05-07T10:11:06;2.85;;;2.08;;
17773;SDS011;9011;33.236;-97.118;2023-05-07T10:13:46;4.22;;;2.78;;
17773;SDS011;9011;33.236;-97.118;2023-05-07T10:16:20;3.85;;;2.65;;
17773;SDS011;9011;33.236;-97.118;2023-05-07T10:19:10;3.10;;;2.40;;
17773;SDS011;9011;33.236;-97.118;2023-05-07T10:21:44;9.07;;;2.88;;
17773;SDS011;9011;33.236;-97.118;2023-05-07T10:24:26;3.08;;;2.35;;
17773;SDS011;9011;33.236;-97.118;2023-05-07T10:27:09;3.08;;;2.33;;
17773;SDS011;9011;33.236;-97.118;2023-05-07T10:29:49;2.88;;;2.60;;
17773;SDS011;9011;33.236;-97.118;2023-05-07T10:32:30;3.28;;;2.65;;
17773;SDS011;9011;33.236;-97.118;2023-05-07T10:35:16;3.58;;;2.55;;
17773;SDS011;9011;33.236;-97.118;2023-05-07T10:37:51;3.95;;;2.63;;
17773;SDS011;9011;33.236;-97.118;2023-05-07T10:40:22;3.78;;;3.28;;
17773;SDS011;9011;33.236;-97.118;2023-05-07T10:42:54;5.35;;;2.80;;
17773;SDS011;9011;33.236;-97.118;2023-05-07T10:45:25;3.13;;;2.65;;
17773;SDS011;9011;33.236;-97.118;2023-05-07T10:48:06;3.67;;;3.00;;
17773;SDS011;9011;33.236;-97.118;2023-05-07T10:50:39;4.75;;;2.97;;
17773;SDS011;9011;33.236;-97.118;2023-05-07T10:53:21;5.57;;;3.13;;
17773;SDS011;9011;33.236;-97.118;2023-05-07T10:58:55;4.85;;;3.13;;
17773;SDS011;9011;33.236;-97.118;2023-05-07T11:01:52;8.68;;;3.78;;
17773;SDS011;9011;33.236;-97.118;2023-05-07T11:04:31;5.55;;;3.38;;
17773;SDS011;9011;33.236;-97.118;2023-05-07T11:09:58;3.40;;;3.08;;
17773;SDS011;9011;33.236;-97.118;2023-05-07T11:12:48;4.45;;;4.00;;
17773;SDS011;9011;33.236;-97.118;2023-05-07T11:15:37;4.35;;;3.03;;
17773;SDS011;9011;33.236;-97.118;2023-05-07T11:18:07;4.00;;;3.35;;
17773;SDS011;9011;33.236;-97.118;2023-05-07T11:20:52;4.55;;;3.60;;
17773;SDS011;9011;33.236;-97.118;2023-05-07T11:26:24;4.43;;;3.60;;
17773;SDS011;9011;33.236;-97.118;2023-05-07T11:28:59;5.53;;;3.88;;
17773;SDS011;9011;33.236;-97.118;2023-05-07T11:31:27;4.50;;;3.17;;
17773;SDS011;9011;33.236;-97.118;2023-05-07T11:34:11;4.93;;;3.97;;
17773;SDS011;9011;33.236;-97.118;2023-05-07T11:36:41;4.47;;;3.90;;
17773;SDS011;9011;33.236;-97.118;2023-05-07T11:39:28;6.38;;;3.90;;
17773;SDS011;9011;33.236;-97.118;2023-05-07T11:42:01;4.47;;;3.63;;
17773;SDS011;9011;33.236;-97.118;2023-05-07T11:44:43;4.18;;;3.28;;
17773;SDS011;9011;33.236;-97.118;2023-05-07T11:47:19;5.03;;;4.07;;
17773;SDS011;9011;33.236;-97.118;2023-05-07T11:49:48;4.45;;;3.85;;
17773;SDS011;9011;33.236;-97.118;2023-05-07T11:52:27;4.32;;;3.50;;
17773;SDS011;9011;33.236;-97.118;2023-05-07T11:54:59;4.45;;;3.80;;
17773;SDS011;9011;33.236;-97.118;2023-05-07T11:57:29;6.22;;;4.20;;
17773;SDS011;9011;33.236;-97.118;2023-05-07T12:00:03;5.40;;;4.20;;
17773;SDS011;9011;33.236;-97.118;2023-05-07T12:02:49;5.25;;;4.28;;
17773;SDS011;9011;33.236;-97.118;2023-05-07T12:05:29;5.82;;;4.30;;
17773;SDS011;9011;33.236;-97.118;2023-05-07T12:07:57;8.45;;;4.55;;
17773;SDS011;9011;33.236;-97.118;2023-05-07T12:10:26;6.95;;;4.95;;
17773;SDS011;9011;33.236;-97.118;2023-05-07T12:12:55;6.43;;;4.65;;
17773;SDS011;9011;33.236;-97.118;2023-05-07T12:15:26;8.60;;;5.03;;
17773;SDS011;9011;33.236;-97.118;2023-05-07T12:17:55;5.65;;;4.55;;
17773;SDS011;9011;33.236;-97.118;2023-05-07T12:20:27;7.30;;;5.25;;
17773;SDS011;9011;33.236;-97.118;2023-05-07T12:23:19;6.50;;;5.20;;
17773;SDS011;9011;33.236;-97.118;2023-05-07T12:25:48;9.00;;;4.95;;
17773;SDS011;9011;33.236;-97.118;2023-05-07T12:28:17;7.65;;;6.32;;
17773;SDS011;9011;33.236;-97.118;2023-05-07T12:30:48;8.27;;;5.57;;
17773;SDS011;9011;33.236;-97.118;2023-05-07T12:33:17;10.02;;;6.07;;
17773;SDS011;9011;33.236;-97.118;2023-05-07T12:35:47;9.20;;;5.80;;
17773;SDS011;9011;33.236;-97.118;2023-05-07T12:38:16;10.00;;;7.00;;
17773;SDS011;9011;33.236;-97.118;2023-05-07T12:40:45;10.00;;;6.70;;
17773;SDS011;9011;33.236;-97.118;2023-05-07T12:43:16;9.23;;;6.55;;
17773;SDS011;9011;33.236;-97.118;2023-05-07T12:45:46;11.40;;;6.55;;
17773;SDS011;9011;33.236;-97.118;2023-05-07T12:48:17;8.40;;;6.32;;
17773;SDS011;9011;33.236;-97.118;2023-05-07T12:50:48;8.85;;;7.07;;
17773;SDS011;9011;33.236;-97.118;2023-05-07T12:53:19;10.07;;;7.30;;
17773;SDS011;9011;33.236;-97.118;2023-05-07T12:56:06;8.95;;;6.13;;
17773;SDS011;9011;33.236;-97.118;2023-05-07T12:58:35;14.65;;;7.45;;
17773;SDS011;9011;33.236;-97.118;2023-05-07T13:01:06;12.32;;;7.40;;
17773;SDS011;9011;33.236;-97.118;2023-05-07T13:03:37;13.65;;;8.07;;
17773;SDS011;9011;33.236;-97.118;2023-05-07T13:06:06;9.88;;;7.30;;
17773;SDS011;9011;33.236;-97.118;2023-05-07T13:08:38;13.77;;;7.88;;
17773;SDS011;9011;33.236;-97.118;2023-05-07T13:11:08;10.52;;;7.57;;
17773;SDS011;9011;33.236;-97.118;2023-05-07T13:13:38;9.45;;;6.90;;
17773;SDS011;9011;33.236;-97.118;2023-05-07T13:16:09;12.00;;;7.85;;
17773;SDS011;9011;33.236;-97.118;2023-05-07T13:18:38;14.27;;;8.73;;
17773;SDS011;9011;33.236;-97.118;2023-05-07T13:21:09;13.40;;;8.02;;
17773;SDS011;9011;33.236;-97.118;2023-05-07T13:23:38;13.50;;;8.23;;
17773;SDS011;9011;33.236;-97.118;2023-05-07T13:26:06;12.75;;;8.13;;
17773;SDS011;9011;33.236;-97.118;2023-05-07T13:28:35;11.30;;;7.53;;
17773;SDS011;9011;33.236;-97.118;2023-05-07T13:31:03;11.82;;;8.00;;
17773;SDS011;9011;33.236;-97.118;2023-05-07T13:33:33;15.18;;;7.30;;
17773;SDS011;9011;33.236;-97.118;2023-05-07T13:36:02;12.13;;;7.82;;
17773;SDS011;9011;33.236;-97.118;2023-05-07T13:38:31;8.65;;;7.28;;
17773;SDS011;9011;33.236;-97.118;2023-05-07T13:41:00;12.27;;;7.90;;
17773;SDS011;9011;33.236;-97.118;2023-05-07T13:43:28;11.25;;;7.88;;
17773;SDS011;9011;33.236;-97.118;2023-05-07T13:45:57;13.50;;;8.35;;
17773;SDS011;9011;33.236;-97.118;2023-05-07T13:48:25;9.65;;;7.50;;
17773;SDS011;9011;33.236;-97.118;2023-05-07T13:50:56;10.20;;;7.82;;
17773;SDS011;9011;33.236;-97.118;2023-05-07T13:53:24;11.48;;;7.82;;
17773;SDS011;9011;33.236;-97.118;2023-05-07T13:55:52;11.38;;;7.47;;
17773;SDS011;9011;33.236;-97.118;2023-05-07T13:58:21;10.32;;;8.00;;
17773;SDS011;9011;33.236;-97.118;2023-05-07T14:00:49;12.45;;;7.53;;
17773;SDS011;9011;33.236;-97.118;2023-05-07T14:03:18;11.63;;;8.05;;
17773;SDS011;9011;33.236;-97.118;2023-05-07T14:05:46;9.02;;;7.47;;
17773;SDS011;9011;33.236;-97.118;2023-05-07T14:08:16;11.32;;;7.57;;
17773;SDS011;9011;33.236;-97.118;2023-05-07T14:10:45;12.25;;;7.55;;
17773;SDS011;9011;33.236;-97.118;2023-05-07T14:13:13;11.80;;;7.63;;
17773;SDS011;9011;33.236;-97.118;2023-05-07T14:15:42;12.70;;;8.13;;
17773;SDS011;9011;33.236;-97.118;2023-05-07T14:18:12;10.45;;;7.38;;
17773;SDS011;9011;33.236;-97.118;2023-05-07T14:20:40;9.55;;;7.75;;
17773;SDS011;9011;33.236;-97.118;2023-05-07T14:23:11;12.77;;;8.07;;
17773;SDS011;9011;33.236;-97.118;2023-05-07T14:25:41;9.30;;;7.75;;
17773;SDS011;9011;33.236;-97.118;2023-05-07T14:28:11;9.68;;;7.75;;
17773;SDS011;9011;33.236;-97.118;2023-05-07T14:30:39;14.77;;;8.45;;
17773;SDS011;9011;33.236;-97.118;2023-05-07T14:33:08;9.70;;;7.90;;
17773;SDS011;9011;33.236;-97.118;2023-05-07T14:35:36;14.23;;;8.57;;
17773;SDS011;9011;33.236;-97.118;2023-05-07T14:38:05;12.98;;;7.70;;
17773;SDS011;9011;33.236;-97.118;2023-05-07T14:40:33;10.63;;;8.20;;
17773;SDS011;9011;33.236;-97.118;2023-05-07T14:43:03;14.50;;;9.35;;
17773;SDS011;9011;33.236;-97.118;2023-05-07T14:45:31;12.10;;;8.88;;
17773;SDS011;9011;33.236;-97.118;2023-05-07T14:48:00;10.75;;;8.73;;
17773;SDS011;9011;33.236;-97.118;2023-05-07T14:50:28;12.52;;;9.18;;
17773;SDS011;9011;33.236;-97.118;2023-05-07T14:52:56;11.88;;;8.93;;
17773;SDS011;9011;33.236;-97.118;2023-05-07T14:55:25;14.98;;;9.20;;
17773;SDS011;9011;33.236;-97.118;2023-05-07T14:57:53;12.60;;;8.68;;
17773;SDS011;9011;33.236;-97.118;2023-05-07T15:00:24;13.75;;;9.23;;
17773;SDS011;9011;33.236;-97.118;2023-05-07T15:02:52;13.77;;;10.15;;
17773;SDS011;9011;33.236;-97.118;2023-05-07T15:05:23;12.88;;;9.98;;
17773;SDS011;9011;33.236;-97.118;2023-05-07T15:07:51;11.55;;;9.20;;
17773;SDS011;9011;33.236;-97.118;2023-05-07T15:10:20;11.85;;;9.00;;
17773;SDS011;9011;33.236;-97.118;2023-05-07T15:12:48;12.70;;;9.05;;
17773;SDS011;9011;33.236;-97.118;2023-05-07T15:15:16;12.50;;;8.82;;
17773;SDS011;9011;33.236;-97.118;2023-05-07T15:17:46;14.27;;;9.25;;
17773;SDS011;9011;33.236;-97.118;2023-05-07T15:20:15;12.75;;;8.05;;
17773;SDS011;9011;33.236;-97.118;2023-05-07T15:22:43;16.05;;;8.85;;
17773;SDS011;9011;33.236;-97.118;2023-05-07T15:25:12;13.10;;;8.73;;
17773;SDS011;9011;33.236;-97.118;2023-05-07T15:27:40;12.20;;;8.55;;
17773;SDS011;9011;33.236;-97.118;2023-05-07T15:30:09;12.45;;;8.73;;
17773;SDS011;9011;33.236;-97.118;2023-05-07T15:32:38;9.77;;;8.45;;
17773;SDS011;9011;33.236;-97.118;2023-05-07T15:35:08;11.60;;;8.40;;
17773;SDS011;9011;33.236;-97.118;2023-05-07T15:37:37;13.98;;;8.90;;
17773;SDS011;9011;33.236;-97.118;2023-05-07T15:40:07;12.02;;;8.35;;
17773;SDS011;9011;33.236;-97.118;2023-05-07T15:42:36;12.60;;;8.85;;
17773;SDS011;9011;33.236;-97.118;2023-05-07T15:45:05;9.02;;;7.93;;
17773;SDS011;9011;33.236;-97.118;2023-05-07T15:47:35;12.27;;;8.85;;
17773;SDS011;9011;33.236;-97.118;2023-05-07T15:50:03;9.93;;;8.70;;
17773;SDS011;9011;33.236;-97.118;2023-05-07T15:52:35;14.52;;;9.18;;
17773;SDS011;9011;33.236;-97.118;2023-05-07T15:55:04;11.55;;;8.15;;
17773;SDS011;9011;33.236;-97.118;2023-05-07T15:57:33;12.98;;;8.18;;
17773;SDS011;9011;33.236;-97.118;2023-05-07T16:00:02;14.10;;;8.68;;
17773;SDS011;9011;33.236;-97.118;2023-05-07T16:02:37;12.15;;;8.77;;
17773;SDS011;9011;33.236;-97.118;2023-05-07T16:05:05;11.45;;;8.35;;
17773;SDS011;9011;33.236;-97.118;2023-05-07T16:07:36;11.38;;;8.38;;
17773;SDS011;9011;33.236;-97.118;2023-05-07T16:10:06;11.55;;;8.70;;
17773;SDS011;9011;33.236;-97.118;2023-05-07T16:12:35;12.55;;;9.40;;
17773;SDS011;9011;33.236;-97.118;2023-05-07T16:15:04;12.18;;;8.98;;